LEAB/ABC METAR and TAF weather

Enter ICAO airport designator
Station Type Date Time Source
LEAB METAR 2020/04/06 11:00 UTC NOAA

LEAB 061100Z 14008KT 9999 FEW020 SCT045 15/10 Q1023 NOSIG


Station Type Date Time Source
LEAB Decoded METAR 2020/04/06 11:00 UTC NOAA

Albacete / Los Llanos, Spain (LEAB) 38-57N 001-51W 704M
Apr 06, 2020 - 07:00 AM EDT / 2020.04.06 1100 UTC
Wind: from the SE (140 degrees) at 9 MPH (8 KT):0
Visibility: greater than 7 mile(s):0
Sky conditions: partly cloudy
Temperature: 59 F (15 C)
Dew Point: 50 F (10 C)
Relative Humidity: 72%
Pressure (altimeter): 30.21 in. Hg (1023 hPa)
ob: LEAB 061100Z 14008KT 9999 FEW020 SCT045 15/10 Q1023 NOSIG
cycle: 11

Station Type Date Time Source
LEAB TAF 2018/04/26 18:51 UTC NOAA

TAF
AMD LEAB 261747Z 2618/2706 16012KT 9999 FEW040
BECMG 2704/2706 27015KT
TEMPO 2704/2706 BKN014

Example: see airport list